Time;durP1;ratioP1;P1;durP2;ratioP2;P2;SDS_P1;SDS_P2;PMS_P1;PMS_P2;Temp;Humidity;BMP_temperature;BMP_pressure;BME280_temperature;BME280_humidity;BME280_pressure;Samples;Min_cycle;Max_cycle;Signal;HPM_P1;HPM_P2
2020/12/23 14:49:47;;;;;;;;;;;20.10;59.20;;;;;;5084995;27;20339;-73
2020/12/23 14:52:14;;;;;;;;;;;20.10;60.70;;;;;;5095093;28;19924;-70
2020/12/23 14:54:40;;;;;;;;;;;20.20;59.80;;;;;;5065177;28;19925;-77
2020/12/23 14:57:07;;;;;;;;;;;20.40;57.90;;;;;;5066206;28;19924;-77
2020/12/23 14:59:33;;;;;;;;;;;20.80;58.20;;;;;;5066042;28;20335;-74
2020/12/23 15:02:00;;;;;;;;;;;21.00;55.00;;;;;;5055647;28;20419;-75
2020/12/23 15:04:26;;;;;;;;;;;21.10;54.60;;;;;;5066156;28;19924;-75
2020/12/23 15:06:53;;;;;;;;;;;21.20;54.00;;;;;;5066766;28;19929;-75
2020/12/23 15:09:19;;;;;;;;;;;21.30;53.70;;;;;;5066547;28;19932;-73
2020/12/23 15:11:46;;;;;;;;;;;21.30;54.20;;;;;;5062997;28;19932;-76
2020/12/23 15:14:13;;;;;;;;;;;21.40;53.20;;;;;;5067290;28;19929;-76
2020/12/23 15:16:39;;;;;;;;;;;21.40;52.30;;;;;;5065172;28;19928;-77
2020/12/23 15:19:08;;;;;;;;;;;21.30;53.10;;;;;;5066325;28;20385;-73
2020/12/23 15:21:34;;;;;;;;;;;21.40;53.00;;;;;;5065123;28;20424;-76
2020/12/23 15:24:00;;;;;;;;;;;21.40;53.50;;;;;;5071642;28;20036;-77
2020/12/23 15:26:27;;;;;;;;;;;21.50;54.00;;;;;;5065681;28;19925;-76
2020/12/23 15:28:55;;;;;;;;;;;21.60;52.90;;;;;;5065259;28;19955;-78
2020/12/23 15:31:21;;;;;;;;;;;21.80;53.30;;;;;;5098673;28;19931;-76
2020/12/23 15:33:48;;;;;;;;;;;21.80;52.90;;;;;;5064245;28;20416;-76
2020/12/23 15:36:17;;;;;;;;;;;21.80;53.30;;;;;;5065826;28;19925;-77
2020/12/23 15:38:43;;;;;;;;;;;21.90;52.70;;;;;;5066095;28;19948;-77
2020/12/23 15:41:10;;;;;;;;;;;22.00;53.70;;;;;;5062927;28;19931;-77
2020/12/23 15:43:36;;;;;;;;;;;22.10;53.00;;;;;;5063953;28;19925;-78
2020/12/23 15:46:03;;;;;;;;;;;22.10;52.90;;;;;;5066289;28;19924;-74
2020/12/23 15:48:30;;;;;;;;;;;22.10;53.10;;;;;;5063433;28;20011;-75
2020/12/23 15:50:56;;;;;;;;;;;22.10;52.40;;;;;;5064621;28;20404;-75
2020/12/23 15:53:23;;;;;;;;;;;22.10;51.50;;;;;;5065352;28;19925;-75
2020/12/23 15:55:49;;;;;;;;;;;22.00;49.90;;;;;;5064651;28;20071;-76
2020/12/23 15:58:15;;;;;;;;;;;21.90;50.90;;;;;;5064840;28;20347;-75
2020/12/23 16:00:41;;;;;;;;;;;22.00;50.70;;;;;;5053754;28;19925;-75
2020/12/23 16:03:08;;;;;;;;;;;22.10;51.20;;;;;;5052316;28;19925;-74
2020/12/23 16:05:35;;;;;;;;;;;22.20;51.20;;;;;;5052721;28;19928;-73
2020/12/23 16:08:02;;;;;;;;;;;22.10;50.90;;;;;;5052590;28;19979;-70
2020/12/23 16:10:29;;;;;;;;;;;22.00;47.20;;;;;;5051594;28;19982;-74
2020/12/23 16:12:56;;;;;;;;;;;21.90;50.50;;;;;;5055170;28;19924;-77
2020/12/23 16:15:22;;;;;;;;;;;22.00;52.20;;;;;;5063538;28;20019;-75
2020/12/23 16:17:49;;;;;;;;;;;22.20;52.00;;;;;;5064626;28;19983;-73
2020/12/23 16:20:15;;;;;;;;;;;22.30;50.60;;;;;;5050682;28;20385;-74
2020/12/23 16:22:42;;;;;;;;;;;22.20;49.70;;;;;;5064313;28;19924;-73
2020/12/23 16:25:08;;;;;;;;;;;22.20;51.00;;;;;;5068300;28;19928;-74
2020/12/23 16:27:34;;;;;;;;;;;22.10;49.00;;;;;;5049113;28;20420;-75
2020/12/23 16:30:01;;;;;;;;;;;22.20;49.60;;;;;;5051541;28;20282;-74
2020/12/23 16:32:27;;;;;;;;;;;22.20;50.40;;;;;;5050890;28;19928;-73
2020/12/23 16:34:53;;;;;;;;;;;22.30;50.70;;;;;;5050884;28;19925;-69
2020/12/23 16:37:21;;;;;;;;;;;22.30;50.40;;;;;;5039971;28;19929;-71
2020/12/23 16:39:48;;;;;;;;;;;22.20;47.90;;;;;;5045600;28;19925;-72
2020/12/23 16:42:14;;;;;;;;;;;22.30;50.30;;;;;;5047625;28;19932;-70
2020/12/23 16:44:42;;;;;;;;;;;22.30;49.70;;;;;;5051988;28;19925;-71
2020/12/23 16:47:09;;;;;;;;;;;22.30;48.30;;;;;;5050569;28;20466;-72
2020/12/23 16:49:35;;;;;;;;;;;22.20;49.10;;;;;;5051506;28;20300;-71
2020/12/23 16:52:02;;;;;;;;;;;22.20;48.10;;;;;;5051699;28;19925;-73
2020/12/23 16:54:28;;;;;;;;;;;22.20;47.70;;;;;;5051488;28;19925;-73
2020/12/23 16:56:55;;;;;;;;;;;22.20;48.20;;;;;;5050134;28;20278;-74
2020/12/23 16:59:23;;;;;;;;;;;22.30;48.60;;;;;;5050207;28;19925;-74
2020/12/23 17:01:56;;;;;;;;;;;22.30;47.40;;;;;;5051903;28;20148;-73
2020/12/23 17:04:23;;;;;;;;;;;22.20;45.50;;;;;;5046325;28;19925;-73
2020/12/23 17:06:49;;;;;;;;;;;22.10;47.30;;;;;;5051040;28;20312;-73
2020/12/23 17:09:16;;;;;;;;;;;22.20;49.40;;;;;;5051578;28;20381;-72
2020/12/23 17:11:42;;;;;;;;;;;22.20;48.00;;;;;;5049563;28;19925;-71
2020/12/23 17:14:09;;;;;;;;;;;22.20;48.20;;;;;;5051008;28;19925;-70
2020/12/23 17:16:35;;;;;;;;;;;22.30;49.50;;;;;;5058783;28;19925;-70
2020/12/23 17:19:01;;;;;;;;;;;22.30;47.70;;;;;;5050539;28;19924;-70
2020/12/23 17:21:29;;;;;;;;;;;22.30;47.10;;;;;;5051920;28;20343;-72
2020/12/23 17:23:56;;;;;;;;;;;22.40;48.40;;;;;;5051316;28;19959;-73
2020/12/23 17:26:23;;;;;;;;;;;22.60;46.30;;;;;;5047510;28;19940;-69
2020/12/23 17:28:50;;;;;;;;;;;22.70;47.20;;;;;;5050066;28;19933;-72
2020/12/23 17:31:18;;;;;;;;;;;22.80;45.90;;;;;;5050038;28;19925;-72
2020/12/23 17:33:45;;;;;;;;;;;22.80;44.00;;;;;;5057526;28;19931;-71
2020/12/23 17:36:11;;;;;;;;;;;22.80;43.10;;;;;;5055793;28;19932;-71
2020/12/23 17:38:37;;;;;;;;;;;22.80;44.10;;;;;;5040911;28;19929;-71
2020/12/23 17:41:04;;;;;;;;;;;22.50;41.70;;;;;;5036541;28;19932;-72
2020/12/23 17:43:30;;;;;;;;;;;22.50;44.00;;;;;;5050310;28;20024;-71
2020/12/23 17:45:58;;;;;;;;;;;22.30;43.80;;;;;;5050248;28;19925;-71
2020/12/23 17:48:25;;;;;;;;;;;22.20;43.50;;;;;;5050714;28;19925;-72
2020/12/23 17:50:51;;;;;;;;;;;22.30;45.40;;;;;;5049402;28;19925;-64
2020/12/23 17:53:19;;;;;;;;;;;22.50;44.80;;;;;;5050180;28;19929;-71
2020/12/23 17:55:49;;;;;;;;;;;22.50;42.40;;;;;;4987196;28;72624;-74
2020/12/23 17:58:22;;;;;;;;;;;22.60;44.00;;;;;;4979072;28;19930;-86
2020/12/23 18:00:48;;;;;;;;;;;21.00;36.70;;;;;;4980011;28;19930;-85
2020/12/23 18:04:48;;;;;;;;;;;19.70;39.80;;;;;;5090607;27;20462;-86
2020/12/23 18:07:24;;;;;;;;;;;18.70;48.40;;;;;;5080214;28;19957;-82
2020/12/23 18:09:50;;;;;;;;;;;18.40;55.10;;;;;;5068860;28;19932;-83
2020/12/23 18:12:16;;;;;;;;;;;18.80;55.40;;;;;;5085945;28;19925;-84
2020/12/23 18:14:44;;;;;;;;;;;19.20;53.00;;;;;;5086674;28;19930;-87
2020/12/23 18:26:20;;;;;;;;;;;17.00;46.60;;;;;;4945539;28;19931;-88
2020/12/23 18:28:46;;;;;;;;;;;17.60;54.40;;;;;;4949953;29;20017;-89
2020/12/23 18:31:13;;;;;;;;;;;17.80;55.40;;;;;;4950042;29;19941;-88
2020/12/23 18:33:40;;;;;;;;;;;18.10;49.40;;;;;;4950187;29;19934;-84
2020/12/23 18:36:11;;;;;;;;;;;18.20;51.80;;;;;;4945684;28;20308;-92
2020/12/23 18:38:37;;;;;;;;;;;18.00;51.60;;;;;;4950626;29;20178;-87
2020/12/23 18:41:06;;;;;;;;;;;18.50;55.00;;;;;;4951555;28;19927;-89
2020/12/23 18:43:35;;;;;;;;;;;18.30;52.10;;;;;;4948817;28;20447;-89
2020/12/23 18:46:01;;;;;;;;;;;17.90;49.80;;;;;;4933602;29;19927;-86
2020/12/23 18:49:45;;;;;;;;;;;17.80;51.90;;;;;;5133949;27;19923;-83
2020/12/23 18:52:12;;;;;;;;;;;18.20;46.60;;;;;;5128279;28;19924;-89
2020/12/23 18:54:38;;;;;;;;;;;17.70;50.20;;;;;;5127411;28;19977;-79
2020/12/23 18:57:05;;;;;;;;;;;17.00;50.40;;;;;;5128001;28;19934;-78
2020/12/23 18:59:31;;;;;;;;;;;16.40;53.40;;;;;;5122696;28;20299;-78
2020/12/23 19:01:57;;;;;;;;;;;15.90;53.60;;;;;;5089817;28;19955;-78
2020/12/23 19:04:23;;;;;;;;;;;15.60;54.70;;;;;;5119287;28;19931;-78
2020/12/23 19:06:50;;;;;;;;;;;15.50;55.10;;;;;;5128522;28;20450;-78
2020/12/23 19:09:16;;;;;;;;;;;15.20;56.60;;;;;;5128251;28;19934;-77
2020/12/23 19:11:42;;;;;;;;;;;15.00;54.70;;;;;;5109420;28;19930;-78
2020/12/23 19:14:09;;;;;;;;;;;14.60;56.00;;;;;;5127526;28;20320;-78
2020/12/23 19:16:36;;;;;;;;;;;14.80;58.40;;;;;;5115579;28;20394;-77
2020/12/23 19:19:03;;;;;;;;;;;14.70;57.20;;;;;;5105650;28;19947;-78
2020/12/23 19:21:39;;;;;;;;;;;14.60;55.30;;;;;;5107475;28;19924;-78
2020/12/23 19:24:08;;;;;;;;;;;14.40;56.40;;;;;;5107059;28;19924;-77
2020/12/23 19:26:41;;;;;;;;;;;14.10;57.00;;;;;;5111041;28;19924;-78
2020/12/23 19:29:08;;;;;;;;;;;14.20;57.80;;;;;;5109344;28;20019;-77
2020/12/23 19:31:35;;;;;;;;;;;14.20;57.20;;;;;;5107508;28;20403;-77
2020/12/23 19:34:02;;;;;;;;;;;14.30;59.70;;;;;;5119818;28;19930;-77
2020/12/23 19:36:28;;;;;;;;;;;14.20;57.90;;;;;;5106747;28;19934;-78
2020/12/23 19:38:55;;;;;;;;;;;14.30;57.30;;;;;;5127355;28;19971;-78
2020/12/23 19:41:21;;;;;;;;;;;14.10;57.20;;;;;;5127190;28;19930;-77
2020/12/23 19:43:47;;;;;;;;;;;14.30;61.70;;;;;;5127238;28;19985;-78
2020/12/23 19:46:14;;;;;;;;;;;14.20;57.40;;;;;;5108945;28;19923;-78
2020/12/23 19:48:40;;;;;;;;;;;14.20;58.60;;;;;;5108768;28;19924;-76
2020/12/23 19:51:08;;;;;;;;;;;14.10;57.90;;;;;;5119617;28;19928;-79
2020/12/23 19:53:34;;;;;;;;;;;14.00;58.40;;;;;;5106488;28;19939;-76
2020/12/23 19:56:01;;;;;;;;;;;14.00;58.90;;;;;;5106399;28;20257;-79
2020/12/23 19:58:27;;;;;;;;;;;14.00;60.00;;;;;;5106623;28;19947;-79
2020/12/23 20:00:53;;;;;;;;;;;14.00;58.80;;;;;;5075713;28;19931;-79
2020/12/23 20:03:19;;;;;;;;;;;14.00;58.40;;;;;;5092703;28;20392;-77
2020/12/23 20:05:46;;;;;;;;;;;14.10;61.80;;;;;;5092702;28;19935;-79
2020/12/23 20:08:12;;;;;;;;;;;14.00;58.20;;;;;;5092586;28;20486;-77
2020/12/23 20:10:38;;;;;;;;;;;13.90;57.90;;;;;;5092373;28;19946;-77
2020/12/23 20:13:05;;;;;;;;;;;13.90;56.60;;;;;;5092409;28;19924;-76
2020/12/23 20:15:43;;;;;;;;;;;13.90;59.70;;;;;;5092049;28;19924;-76
2020/12/23 20:18:09;;;;;;;;;;;13.90;57.70;;;;;;5092441;28;19924;-76
2020/12/23 20:20:36;;;;;;;;;;;13.80;60.90;;;;;;5092363;28;20400;-77
2020/12/23 20:23:03;;;;;;;;;;;13.70;57.90;;;;;;5092149;28;20380;-76
2020/12/23 20:25:29;;;;;;;;;;;13.50;56.90;;;;;;5092170;28;20411;-75
2020/12/23 20:27:55;;;;;;;;;;;13.40;61.40;;;;;;5112632;28;19924;-76
2020/12/23 20:30:21;;;;;;;;;;;13.40;57.60;;;;;;5112410;28;19924;-76
2020/12/23 20:32:48;;;;;;;;;;;13.50;61.20;;;;;;5100807;28;19931;-76
2020/12/23 20:35:14;;;;;;;;;;;13.60;59.40;;;;;;5104288;28;19930;-76
2020/12/23 20:37:41;;;;;;;;;;;13.50;58.50;;;;;;5101669;28;19931;-77
2020/12/23 20:40:07;;;;;;;;;;;13.80;58.00;;;;;;5091585;28;19935;-76
2020/12/23 20:42:37;;;;;;;;;;;13.80;61.40;;;;;;5091772;28;19993;-76
2020/12/23 20:45:04;;;;;;;;;;;13.90;59.10;;;;;;5091915;28;19924;-76
2020/12/23 20:47:32;;;;;;;;;;;14.00;58.20;;;;;;5089578;28;19924;-76
2020/12/23 20:49:58;;;;;;;;;;;14.00;57.30;;;;;;5071265;28;20376;-76
2020/12/23 20:52:25;;;;;;;;;;;13.90;59.20;;;;;;5071305;28;20258;-75
2020/12/23 20:54:53;;;;;;;;;;;14.10;61.30;;;;;;5071270;28;19928;-78
2020/12/23 20:57:19;;;;;;;;;;;13.90;59.10;;;;;;5071592;28;19924;-76
2020/12/23 20:59:45;;;;;;;;;;;14.10;57.70;;;;;;5053313;28;19993;-78
2020/12/23 21:02:12;;;;;;;;;;;14.10;58.40;;;;;;5071297;28;19925;-76
2020/12/23 21:04:38;;;;;;;;;;;14.10;59.90;;;;;;5071427;28;20340;-76
2020/12/23 21:07:04;;;;;;;;;;;14.40;62.90;;;;;;5071140;28;19925;-76
2020/12/23 21:09:30;;;;;;;;;;;14.40;56.50;;;;;;5071141;28;19932;-79
2020/12/23 21:11:57;;;;;;;;;;;14.60;59.50;;;;;;5070473;28;19982;-79
2020/12/23 21:14:23;;;;;;;;;;;14.30;55.20;;;;;;5071195;28;19929;-78
2020/12/23 21:16:51;;;;;;;;;;;14.10;55.20;;;;;;5071214;28;19924;-75
2020/12/23 21:19:18;;;;;;;;;;;14.00;58.70;;;;;;5071422;28;19924;-79
2020/12/23 21:21:46;;;;;;;;;;;14.00;57.50;;;;;;5070930;28;19967;-76
2020/12/23 21:24:12;;;;;;;;;;;13.80;55.90;;;;;;5071313;28;19937;-79
2020/12/23 21:26:39;;;;;;;;;;;13.70;56.80;;;;;;5080524;28;19928;-76
2020/12/23 21:29:06;;;;;;;;;;;13.80;56.60;;;;;;5090809;28;19938;-76
2020/12/23 21:31:33;;;;;;;;;;;14.00;56.80;;;;;;5090657;28;20027;-76
2020/12/23 21:33:59;;;;;;;;;;;14.00;57.70;;;;;;5070440;28;20392;-76
2020/12/23 21:36:26;;;;;;;;;;;14.20;58.30;;;;;;5070482;28;19925;-76
2020/12/23 21:38:52;;;;;;;;;;;14.10;56.90;;;;;;5071106;28;19931;-77
2020/12/23 21:41:29;;;;;;;;;;;14.20;60.50;;;;;;5078099;28;20279;-76
2020/12/23 21:43:56;;;;;;;;;;;14.20;58.60;;;;;;5090855;28;19923;-76
2020/12/23 21:46:40;;;;;;;;;;;14.50;58.40;;;;;;5090647;28;19924;-78
2020/12/23 21:49:06;;;;;;;;;;;14.60;60.70;;;;;;5105538;28;20283;-79
2020/12/23 21:51:33;;;;;;;;;;;14.40;54.90;;;;;;5081970;28;19928;-78
2020/12/23 21:54:00;;;;;;;;;;;14.30;55.90;;;;;;5090719;28;19928;-78
2020/12/23 21:56:26;;;;;;;;;;;14.40;60.10;;;;;;5090557;28;19935;-78
2020/12/23 21:58:53;;;;;;;;;;;14.30;57.30;;;;;;5090907;28;20438;-78
2020/12/23 22:01:29;;;;;;;;;;;14.00;56.20;;;;;;5090712;28;19924;-76
2020/12/23 22:03:56;;;;;;;;;;;13.90;57.90;;;;;;5090458;28;19951;-76
2020/12/23 22:06:22;;;;;;;;;;;13.90;59.70;;;;;;5090242;28;19924;-76
2020/12/23 22:08:49;;;;;;;;;;;13.70;57.60;;;;;;5090403;28;19928;-76
2020/12/23 22:11:20;;;;;;;;;;;13.50;58.90;;;;;;5090402;28;19924;-76
2020/12/23 22:13:46;;;;;;;;;;;13.50;57.30;;;;;;5090613;28;19932;-75
2020/12/23 22:16:13;;;;;;;;;;;13.70;58.90;;;;;;5090379;28;19985;-78
2020/12/23 22:18:39;;;;;;;;;;;14.00;60.60;;;;;;5090239;28;19931;-78
2020/12/23 22:21:06;;;;;;;;;;;13.90;56.50;;;;;;5090230;28;19981;-77
2020/12/23 22:23:32;;;;;;;;;;;13.70;57.40;;;;;;5071969;28;20450;-76
2020/12/23 22:25:58;;;;;;;;;;;13.60;59.60;;;;;;5094488;28;20122;-76
2020/12/23 22:28:25;;;;;;;;;;;13.70;59.50;;;;;;5110142;28;19947;-75
2020/12/23 22:30:52;;;;;;;;;;;13.80;59.90;;;;;;5089849;28;20415;-75
2020/12/23 22:33:18;;;;;;;;;;;13.60;58.40;;;;;;5081291;28;19924;-76
2020/12/23 22:35:44;;;;;;;;;;;13.60;60.50;;;;;;5110312;28;20387;-76
2020/12/23 22:38:11;;;;;;;;;;;13.80;61.30;;;;;;5096041;28;19930;-76
2020/12/23 22:40:37;;;;;;;;;;;13.80;58.00;;;;;;5092252;28;20407;-77
2020/12/23 22:43:03;;;;;;;;;;;14.00;60.70;;;;;;5110248;28;19928;-78
2020/12/23 22:45:29;;;;;;;;;;;13.80;59.50;;;;;;5092230;28;19946;-77
2020/12/23 22:47:56;;;;;;;;;;;13.90;60.80;;;;;;5109926;28;19928;-76
2020/12/23 22:50:22;;;;;;;;;;;13.60;58.00;;;;;;5108995;28;19930;-75
2020/12/23 22:52:49;;;;;;;;;;;13.40;60.00;;;;;;5089761;28;20415;-76
2020/12/23 22:55:15;;;;;;;;;;;13.40;60.40;;;;;;5089978;28;19928;-75
2020/12/23 22:57:41;;;;;;;;;;;13.30;60.20;;;;;;5089866;28;19924;-75
2020/12/23 23:00:13;;;;;;;;;;;13.40;59.70;;;;;;5089996;28;19924;-75
2020/12/23 23:02:40;;;;;;;;;;;13.30;58.70;;;;;;5089559;28;20403;-75
2020/12/23 23:05:06;;;;;;;;;;;13.20;61.50;;;;;;5089696;28;19928;-75
2020/12/23 23:07:32;;;;;;;;;;;13.00;60.10;;;;;;5089650;28;19934;-75
2020/12/23 23:09:59;;;;;;;;;;;13.30;60.40;;;;;;5090055;28;19947;-75
2020/12/23 23:12:25;;;;;;;;;;;12.90;60.10;;;;;;5089635;28;19924;-75
2020/12/23 23:14:52;;;;;;;;;;;13.20;64.10;;;;;;5089284;28;19924;-76
2020/12/23 23:17:35;;;;;;;;;;;13.40;61.90;;;;;;5109295;28;20367;-75
2020/12/23 23:20:04;;;;;;;;;;;13.60;63.50;;;;;;5109755;28;19928;-77
2020/12/23 23:22:31;;;;;;;;;;;13.60;59.50;;;;;;5091690;28;20399;-77
2020/12/23 23:24:57;;;;;;;;;;;13.30;61.70;;;;;;5110028;28;19946;-75
2020/12/23 23:27:23;;;;;;;;;;;13.20;62.00;;;;;;5093996;28;20011;-75
2020/12/23 23:29:50;;;;;;;;;;;13.10;65.00;;;;;;5089367;28;19925;-75
2020/12/23 23:32:16;;;;;;;;;;;13.20;63.80;;;;;;5095500;28;19934;-76
2020/12/23 23:34:42;;;;;;;;;;;13.20;62.60;;;;;;5090244;28;20415;-74
2020/12/23 23:37:08;;;;;;;;;;;13.30;63.60;;;;;;5099076;28;19931;-75
2020/12/23 23:39:35;;;;;;;;;;;13.50;63.10;;;;;;5114011;28;19932;-77
2020/12/23 23:42:01;;;;;;;;;;;13.20;63.20;;;;;;5099835;28;19950;-74
2020/12/23 23:44:28;;;;;;;;;;;13.00;65.00;;;;;;5093495;28;20500;-76
2020/12/23 23:46:54;;;;;;;;;;;13.10;65.60;;;;;;5092968;28;20023;-75
2020/12/23 23:49:20;;;;;;;;;;;12.90;64.90;;;;;;5092777;28;20331;-74
2020/12/23 23:51:46;;;;;;;;;;;13.10;65.90;;;;;;5092717;28;20385;-76
2020/12/23 23:54:13;;;;;;;;;;;13.30;64.60;;;;;;5093061;28;19924;-76
2020/12/23 23:56:39;;;;;;;;;;;13.50;63.00;;;;;;5092761;28;19931;-74
2020/12/23 23:59:05;;;;;;;;;;;13.10;65.00;;;;;;5092915;28;19924;-76
